createdAt,value
2024-03-28T00:00:08.088Z,5.10
2024-03-28T00:03:16.720Z,6.40
2024-03-28T00:05:53.380Z,5.50
2024-03-28T00:08:22.660Z,4.90
2024-03-28T00:10:52.113Z,8.30
2024-03-28T00:13:21.350Z,4.60
2024-03-28T00:16:00.224Z,5.10
2024-03-28T00:18:30.366Z,6.00
2024-03-28T00:21:00.276Z,5.60
2024-03-28T00:23:29.398Z,5.90
2024-03-28T00:25:59.408Z,4.90
2024-03-28T00:28:28.609Z,5.10
2024-03-28T00:30:57.368Z,7.00
2024-03-28T00:33:26.089Z,5.50
2024-03-28T00:35:54.597Z,5.90
2024-03-28T00:38:23.234Z,6.60
2024-03-28T00:40:54.368Z,5.90
2024-03-28T00:43:23.757Z,5.80
2024-03-28T00:45:52.446Z,5.40
2024-03-28T00:48:21.088Z,5.40
2024-03-28T00:50:53.986Z,5.40
2024-03-28T00:53:22.948Z,5.70
2024-03-28T00:55:51.876Z,7.10
2024-03-28T00:58:20.740Z,5.50
2024-03-28T01:00:49.943Z,6.20
2024-03-28T01:03:18.546Z,5.30
2024-03-28T01:05:47.312Z,5.60
2024-03-28T01:08:15.891Z,5.60
2024-03-28T01:10:44.608Z,5.30
2024-03-28T01:13:13.624Z,4.80
2024-03-28T01:15:42.290Z,4.30
2024-03-28T01:18:13.066Z,5.90
2024-03-28T01:20:41.587Z,5.50
2024-03-28T01:23:10.217Z,4.90
2024-03-28T01:25:38.900Z,6.30
2024-03-28T01:28:10.223Z,5.70
2024-03-28T01:30:40.691Z,5.20
2024-03-28T01:33:09.555Z,5.80
2024-03-28T01:35:38.258Z,4.90
2024-03-28T01:38:06.862Z,4.90
2024-03-28T01:40:35.360Z,5.00
2024-03-28T01:43:06.256Z,5.00
2024-03-28T01:45:35.779Z,5.90
2024-03-28T01:48:04.983Z,5.00
2024-03-28T01:50:33.978Z,7.60
2024-03-28T01:53:03.414Z,5.10
2024-03-28T01:55:32.037Z,5.60
2024-03-28T01:58:02.105Z,5.90
2024-03-28T02:00:30.648Z,5.10
2024-03-28T02:02:59.805Z,5.40
2024-03-28T02:05:28.790Z,6.80
2024-03-28T02:07:57.303Z,5.50
2024-03-28T02:10:26.056Z,5.20
2024-03-28T02:12:54.566Z,5.40
2024-03-28T02:15:23.072Z,6.00
2024-03-28T02:17:52.158Z,4.40
2024-03-28T02:20:20.802Z,7.50
2024-03-28T02:22:49.276Z,7.60
2024-03-28T02:25:18.023Z,4.50
2024-03-28T02:27:46.503Z,4.70
2024-03-28T02:30:15.365Z,7.20
2024-03-28T02:32:43.837Z,5.60
2024-03-28T02:35:12.598Z,5.50
2024-03-28T02:37:41.236Z,5.40
2024-03-28T02:40:10.565Z,7.00
2024-03-28T02:42:39.179Z,5.20
2024-03-28T02:45:08.360Z,7.50
2024-03-28T02:47:37.666Z,6.90
2024-03-28T02:50:06.565Z,7.50
2024-03-28T02:52:35.116Z,5.80
2024-03-28T02:55:04.212Z,5.80
2024-03-28T02:57:33.059Z,6.20
2024-03-28T03:00:01.498Z,5.60
2024-03-28T03:02:30.176Z,7.60
2024-03-28T03:04:58.680Z,6.10
2024-03-28T03:07:27.356Z,6.20
2024-03-28T03:09:56.042Z,6.30
2024-03-28T03:12:25.726Z,6.80
2024-03-28T03:14:54.372Z,7.50
2024-03-28T03:17:22.984Z,5.80
2024-03-28T03:19:55.230Z,6.40
2024-03-28T03:22:24.307Z,5.80
2024-03-28T03:24:59.371Z,8.20
2024-03-28T03:27:34.039Z,7.70
2024-03-28T03:30:21.298Z,6.50
2024-03-28T03:33:08.613Z,8.40
2024-03-28T03:35:37.219Z,7.50
2024-03-28T03:38:05.804Z,6.30
2024-03-28T03:40:34.418Z,8.30
2024-03-28T03:43:02.962Z,6.40
2024-03-28T03:45:31.603Z,7.50
2024-03-28T03:48:00.231Z,7.40
2024-03-28T03:50:28.884Z,9.70
2024-03-28T03:52:57.663Z,6.50
2024-03-28T03:55:26.727Z,7.30
2024-03-28T03:57:55.214Z,8.90
2024-03-28T04:00:23.839Z,9.40
2024-03-28T04:02:52.280Z,9.10
2024-03-28T04:05:20.815Z,8.00
2024-03-28T04:07:49.467Z,7.90
2024-03-28T04:10:19.081Z,7.00
2024-03-28T04:12:47.678Z,7.80
2024-03-28T04:15:16.379Z,10.00
2024-03-28T04:17:45.051Z,12.00
2024-03-28T04:20:14.144Z,8.40
2024-03-28T04:22:42.778Z,9.90
2024-03-28T04:25:12.331Z,7.60
2024-03-28T04:27:41.027Z,10.00
2024-03-28T04:30:10.220Z,10.40
2024-03-28T04:32:38.853Z,9.60
2024-03-28T04:35:08.021Z,10.20
2024-03-28T04:37:36.560Z,12.00
2024-03-28T04:40:10.243Z,10.20
2024-03-28T04:42:39.517Z,11.20
2024-03-28T04:45:12.444Z,13.00
2024-03-28T04:47:41.010Z,12.10
2024-03-28T04:50:10.604Z,13.30
2024-03-28T04:52:39.127Z,9.00
2024-03-28T04:55:08.415Z,10.90
2024-03-28T04:57:36.971Z,9.10
2024-03-28T05:00:09.357Z,12.70
2024-03-28T05:02:38.391Z,10.70
2024-03-28T05:05:07.653Z,12.70
2024-03-28T05:07:36.400Z,15.90
2024-03-28T05:10:08.339Z,9.60
2024-03-28T05:12:36.955Z,10.70
2024-03-28T05:15:07.347Z,12.50
2024-03-28T05:17:35.859Z,10.70
2024-03-28T05:20:05.190Z,11.50
2024-03-28T05:22:34.029Z,10.40
2024-03-28T05:25:02.818Z,8.40
2024-03-28T05:27:31.506Z,11.50
2024-03-28T05:30:00.271Z,16.90
2024-03-28T05:32:28.858Z,13.00
2024-03-28T05:34:57.469Z,15.90
2024-03-28T05:37:28.128Z,10.40
2024-03-28T05:39:56.884Z,16.10
2024-03-28T05:42:25.378Z,13.40
2024-03-28T05:44:54.167Z,15.00
2024-03-28T05:47:22.694Z,19.90
2024-03-28T05:49:51.340Z,13.60
2024-03-28T05:52:20.164Z,11.70
2024-03-28T05:54:48.839Z,15.00
2024-03-28T05:57:17.505Z,12.00
2024-03-28T05:59:46.188Z,12.40
2024-03-28T06:02:14.799Z,14.00
2024-03-28T06:04:43.452Z,11.70
2024-03-28T06:07:12.004Z,17.00
2024-03-28T06:09:40.854Z,14.60
2024-03-28T06:12:09.430Z,15.50
2024-03-28T06:14:39.687Z,12.10
2024-03-28T06:17:08.368Z,14.60
2024-03-28T06:19:36.982Z,12.50
2024-03-28T06:22:06.055Z,16.40
2024-03-28T06:24:34.566Z,13.20
2024-03-28T06:27:03.034Z,11.40
2024-03-28T06:29:38.173Z,14.40
2024-03-28T06:32:14.676Z,16.70
2024-03-28T06:34:43.667Z,13.20
2024-03-28T06:37:12.967Z,15.00
2024-03-28T06:39:41.538Z,14.50
2024-03-28T06:42:10.009Z,14.40
2024-03-28T06:44:38.529Z,14.50
2024-03-28T06:47:07.391Z,10.80
2024-03-28T06:49:35.861Z,13.80
2024-03-28T06:52:04.661Z,13.80
2024-03-28T06:54:33.368Z,14.20
2024-03-28T06:57:02.438Z,16.00
2024-03-28T06:59:31.067Z,17.50
2024-03-28T07:01:59.653Z,14.20
2024-03-28T07:04:28.344Z,14.40
2024-03-28T07:06:57.004Z,14.30
2024-03-28T07:09:25.837Z,17.60
2024-03-28T07:11:54.487Z,16.50
2024-03-28T07:14:23.033Z,17.30
2024-03-28T07:16:51.666Z,16.70
2024-03-28T07:19:20.352Z,13.80
2024-03-28T07:21:48.986Z,17.00
2024-03-28T07:24:18.668Z,16.40
2024-03-28T07:26:47.332Z,18.60
2024-03-28T07:29:15.898Z,14.20
2024-03-28T07:31:44.633Z,22.40
2024-03-28T07:34:13.720Z,13.70
2024-03-28T07:36:42.408Z,12.40
2024-03-28T07:39:12.812Z,21.30
2024-03-28T07:41:42.361Z,19.90
2024-03-28T07:44:10.955Z,16.30
2024-03-28T07:46:39.559Z,15.30
2024-03-28T07:49:08.216Z,15.50
2024-03-28T07:51:36.904Z,17.80
2024-03-28T07:54:05.421Z,14.80
2024-03-28T07:56:34.141Z,17.50
2024-03-28T07:59:02.780Z,20.30
2024-03-28T08:01:31.618Z,14.50
2024-03-28T08:04:00.366Z,19.70
2024-03-28T08:06:29.275Z,14.40
2024-03-28T08:08:57.990Z,16.70
2024-03-28T08:11:26.636Z,22.30
2024-03-28T08:13:55.759Z,17.60
2024-03-28T08:16:24.434Z,20.20
2024-03-28T08:18:54.946Z,17.70
2024-03-28T08:21:24.053Z,18.30
2024-03-28T08:23:53.445Z,17.60
2024-03-28T08:26:22.253Z,17.10
2024-03-28T08:28:51.049Z,17.80
2024-03-28T08:31:19.934Z,18.30
2024-03-28T08:33:48.426Z,20.90
2024-03-28T08:36:19.077Z,15.50
2024-03-28T08:38:47.713Z,20.80
2024-03-28T08:41:16.924Z,14.10
2024-03-28T08:43:49.254Z,20.10
2024-03-28T08:46:19.179Z,20.50
2024-03-28T08:48:47.857Z,20.40
2024-03-28T08:51:21.937Z,17.00
2024-03-28T08:53:50.529Z,19.70
2024-03-28T08:56:21.584Z,19.00
2024-03-28T08:58:50.277Z,19.00
2024-03-28T09:01:18.958Z,16.20
2024-03-28T09:03:49.485Z,19.70
2024-03-28T09:06:18.419Z,18.70
2024-03-28T09:08:47.683Z,23.60
2024-03-28T09:11:16.691Z,16.90
2024-03-28T09:13:45.604Z,24.20
2024-03-28T09:16:14.577Z,20.50
2024-03-28T09:18:44.968Z,22.10
2024-03-28T09:21:14.876Z,21.90
2024-03-28T09:23:43.532Z,21.50
2024-03-28T09:26:12.311Z,21.90
2024-03-28T09:28:41.036Z,18.80
2024-03-28T09:31:09.702Z,21.40
2024-03-28T09:33:38.850Z,19.90
2024-03-28T09:36:07.767Z,19.00
2024-03-28T09:38:36.263Z,15.70
2024-03-28T09:41:14.040Z,20.40
2024-03-28T09:43:42.873Z,21.50
2024-03-28T09:46:15.055Z,16.80
2024-03-28T09:48:44.646Z,13.90
2024-03-28T09:51:14.554Z,15.40
2024-03-28T09:53:43.576Z,19.70
2024-03-28T09:56:13.518Z,22.80
2024-03-28T09:58:42.321Z,19.00
2024-03-28T10:01:12.084Z,20.70
2024-03-28T10:03:43.967Z,20.70
2024-03-28T10:06:12.671Z,21.80
2024-03-28T10:08:42.484Z,20.30
2024-03-28T10:11:11.558Z,20.70
2024-03-28T10:13:40.074Z,20.30
2024-03-28T10:16:09.162Z,18.80
2024-03-28T10:18:38.570Z,17.60
2024-03-28T10:21:07.951Z,17.00
2024-03-28T10:23:40.483Z,20.90
2024-03-28T10:26:10.666Z,20.00
2024-03-28T10:28:42.649Z,19.10
2024-03-28T10:31:11.664Z,17.80
2024-03-28T10:33:44.963Z,15.60
2024-03-28T10:36:22.484Z,20.10
2024-03-28T10:39:01.565Z,15.90
2024-03-28T10:41:31.065Z,15.50
2024-03-28T10:44:02.322Z,16.10
2024-03-28T10:46:32.306Z,14.70
2024-03-28T10:49:07.444Z,17.30
2024-03-28T10:51:50.228Z,18.00
2024-03-28T10:54:29.537Z,18.40
2024-03-28T10:56:58.326Z,13.30
2024-03-28T10:59:30.186Z,16.10
2024-03-28T11:01:59.820Z,15.40
2024-03-28T11:04:28.573Z,11.60
2024-03-28T11:06:58.358Z,12.40
2024-03-28T11:09:29.491Z,9.70
2024-03-28T11:11:58.144Z,13.20
2024-03-28T11:14:27.654Z,12.50
2024-03-28T11:17:06.386Z,8.90
2024-03-28T11:19:35.267Z,14.00
2024-03-28T11:22:04.928Z,12.10
2024-03-28T11:24:33.581Z,8.70
2024-03-28T11:27:03.308Z,8.80
2024-03-28T11:29:32.078Z,7.20
2024-03-28T11:32:01.865Z,4.60
2024-03-28T11:34:31.002Z,8.60
2024-03-28T11:36:59.633Z,7.00
2024-03-28T11:39:28.686Z,6.70
2024-03-28T11:41:57.778Z,7.50
2024-03-28T11:44:27.899Z,8.80
2024-03-28T11:47:00.306Z,8.30
2024-03-28T11:49:28.968Z,9.10
2024-03-28T11:51:58.585Z,6.70
2024-03-28T11:54:28.193Z,8.40
2024-03-28T11:56:56.717Z,7.70
2024-03-28T11:59:26.292Z,6.70
2024-03-28T12:02:05.327Z,6.60
2024-03-28T12:04:34.247Z,6.20
2024-03-28T12:07:04.344Z,4.50
2024-03-28T12:09:33.098Z,6.10
2024-03-28T12:12:06.802Z,5.70
2024-03-28T12:14:35.653Z,5.50
2024-03-28T12:17:07.010Z,5.10
2024-03-28T12:19:35.553Z,4.50
2024-03-28T12:22:04.878Z,5.00
2024-03-28T12:24:33.566Z,5.60
2024-03-28T12:27:02.094Z,4.40
2024-03-28T12:29:30.918Z,5.30
2024-03-28T12:32:05.986Z,3.50
2024-03-28T12:34:34.912Z,6.00
2024-03-28T12:37:03.658Z,3.40
2024-03-28T12:39:32.401Z,3.00
2024-03-28T12:42:01.493Z,2.90
2024-03-28T12:44:30.273Z,2.30
2024-03-28T12:46:58.825Z,2.00
2024-03-28T12:49:27.949Z,2.50
2024-03-28T12:51:56.466Z,5.70
2024-03-28T12:54:25.011Z,2.40
2024-03-28T12:56:53.709Z,3.20
2024-03-28T12:59:22.340Z,6.30
2024-03-28T13:01:52.778Z,3.40
2024-03-28T13:04:22.072Z,4.00
2024-03-28T13:06:54.660Z,3.40
2024-03-28T13:09:23.935Z,2.50
2024-03-28T13:11:53.018Z,3.00
2024-03-28T13:14:23.019Z,2.90
2024-03-28T13:16:51.909Z,3.20
2024-03-28T13:19:20.459Z,5.10
2024-03-28T13:21:49.749Z,2.30
2024-03-28T13:24:22.106Z,2.50
2024-03-28T13:27:17.105Z,3.40
2024-03-28T13:29:41.532Z,4.00
2024-03-28T13:32:11.110Z,3.90
2024-03-28T13:34:40.795Z,4.60
2024-03-28T13:37:10.940Z,3.10
2024-03-28T13:39:40.766Z,3.80
2024-03-28T13:42:09.944Z,3.80
2024-03-28T13:44:38.559Z,2.60
2024-03-28T13:47:11.669Z,2.90
2024-03-28T13:49:40.280Z,2.70
2024-03-28T13:52:09.006Z,3.20
2024-03-28T13:54:37.656Z,4.60
2024-03-28T13:57:06.520Z,2.90
2024-03-28T13:59:35.252Z,3.30
2024-03-28T14:02:06.171Z,4.20
2024-03-28T14:04:35.048Z,2.80
2024-03-28T14:07:03.813Z,2.90
2024-03-28T14:09:32.590Z,3.10
2024-03-28T14:12:01.296Z,3.30
2024-03-28T14:14:30.039Z,2.80
2024-03-28T14:16:58.781Z,4.50
2024-03-28T14:19:28.595Z,3.10
2024-03-28T14:21:57.173Z,3.20
2024-03-28T14:24:25.762Z,5.50
2024-03-28T14:26:54.389Z,3.40
2024-03-28T14:29:22.970Z,4.30
2024-03-28T14:31:51.532Z,3.40
2024-03-28T14:34:20.219Z,2.80
2024-03-28T14:36:49.036Z,5.20
2024-03-28T14:39:25.004Z,3.50
2024-03-28T14:41:54.728Z,3.50
2024-03-28T14:44:23.966Z,4.90
2024-03-28T14:46:53.202Z,3.70
2024-03-28T14:49:21.958Z,5.80
2024-03-28T14:51:51.381Z,2.80
2024-03-28T14:54:21.272Z,2.40
2024-03-28T14:56:50.244Z,2.70
2024-03-28T14:59:23.832Z,2.40
2024-03-28T15:01:52.439Z,3.00
2024-03-28T15:04:26.917Z,4.00
2024-03-28T15:06:58.983Z,3.60
2024-03-28T15:09:27.771Z,3.70
2024-03-28T15:11:56.775Z,3.60
2024-03-28T15:14:27.826Z,3.20
2024-03-28T15:16:58.552Z,4.50
2024-03-28T15:19:29.301Z,4.00
2024-03-28T15:21:57.855Z,3.70
2024-03-28T15:24:26.476Z,3.60
2024-03-28T15:26:56.150Z,3.50
2024-03-28T15:29:24.675Z,2.70
2024-03-28T15:31:58.812Z,4.20
2024-03-28T15:34:30.408Z,5.50
2024-03-28T15:36:59.239Z,3.30
2024-03-28T15:39:31.036Z,4.00
2024-03-28T15:41:59.675Z,3.60
2024-03-28T15:44:29.225Z,3.40
2024-03-28T15:46:57.789Z,4.00
2024-03-28T15:49:26.683Z,4.50
2024-03-28T15:51:55.376Z,4.40
2024-03-28T15:54:23.997Z,3.90
2024-03-28T15:56:52.747Z,5.50
2024-03-28T15:59:21.442Z,5.00
2024-03-28T16:01:49.901Z,4.30
2024-03-28T16:04:18.542Z,3.80
2024-03-28T16:06:47.134Z,4.60
2024-03-28T16:09:15.680Z,4.50
2024-03-28T16:11:44.392Z,3.70
2024-03-28T16:14:13.070Z,4.50
2024-03-28T16:16:41.687Z,3.80
2024-03-28T16:19:13.850Z,4.00
2024-03-28T16:21:42.513Z,3.30
2024-03-28T16:24:11.004Z,4.80
2024-03-28T16:26:40.250Z,4.60
2024-03-28T16:29:11.058Z,4.40
2024-03-28T16:31:40.635Z,4.80
2024-03-28T16:34:10.159Z,4.80
2024-03-28T16:36:39.252Z,10.10
2024-03-28T16:39:08.042Z,4.20
2024-03-28T16:41:43.409Z,5.40
2024-03-28T16:44:12.529Z,5.00
2024-03-28T16:46:41.097Z,4.10
2024-03-28T16:49:09.717Z,4.30
2024-03-28T16:51:38.764Z,5.70
2024-03-28T16:54:10.314Z,4.40
2024-03-28T16:56:38.928Z,4.90
2024-03-28T16:59:08.739Z,4.90
2024-03-28T17:01:37.346Z,3.60
2024-03-28T17:04:07.630Z,4.80
2024-03-28T17:06:36.446Z,6.10
2024-03-28T17:09:07.076Z,4.90
2024-03-28T17:11:35.725Z,5.40
2024-03-28T17:14:04.412Z,5.70
2024-03-28T17:16:32.976Z,5.40
2024-03-28T17:19:01.431Z,4.80
2024-03-28T17:21:29.984Z,3.50
2024-03-28T17:23:58.788Z,5.30
2024-03-28T17:26:27.412Z,5.00
2024-03-28T17:28:56.019Z,5.70
2024-03-28T17:31:24.549Z,4.20
2024-03-28T17:33:53.397Z,4.90
2024-03-28T17:36:21.981Z,4.80
2024-03-28T17:38:53.543Z,6.90
2024-03-28T17:41:22.411Z,6.10
2024-03-28T17:43:51.324Z,7.70
2024-03-28T17:46:19.878Z,8.30
2024-03-28T17:48:48.488Z,7.10
2024-03-28T17:51:17.010Z,6.80
2024-03-28T17:53:45.629Z,6.10
2024-03-28T17:56:14.394Z,8.30
2024-03-28T17:58:43.666Z,6.30
2024-03-28T18:01:12.331Z,7.90
2024-03-28T18:03:41.327Z,8.30
2024-03-28T18:06:10.238Z,7.60
2024-03-28T18:08:45.558Z,5.90
2024-03-28T18:11:14.157Z,8.70
2024-03-28T18:13:42.847Z,6.10
2024-03-28T18:16:14.492Z,6.10
2024-03-28T18:18:43.690Z,6.10
2024-03-28T18:21:12.587Z,5.30
2024-03-28T18:23:41.191Z,9.00
2024-03-28T18:26:09.995Z,6.50
2024-03-28T18:28:38.663Z,7.80
2024-03-28T18:31:07.834Z,10.30
2024-03-28T18:33:36.577Z,7.90
2024-03-28T18:36:05.420Z,9.20
2024-03-28T18:38:33.942Z,9.80
2024-03-28T18:41:12.663Z,9.90
2024-03-28T18:43:42.410Z,10.60
2024-03-28T18:46:12.627Z,10.00
2024-03-28T18:48:41.295Z,8.30
2024-03-28T18:51:09.947Z,9.80
2024-03-28T18:53:39.596Z,8.50
2024-03-28T18:56:08.151Z,10.50
2024-03-28T18:58:36.865Z,8.90
2024-03-28T19:01:07.030Z,9.30
2024-03-28T19:03:38.026Z,10.30
2024-03-28T19:06:10.737Z,11.20
2024-03-28T19:08:39.931Z,8.60
2024-03-28T19:11:12.920Z,8.80
2024-03-28T19:13:42.655Z,7.90
2024-03-28T19:16:14.826Z,8.90
2024-03-28T19:18:44.247Z,11.80
2024-03-28T19:21:12.892Z,13.20
2024-03-28T19:23:41.935Z,10.50
2024-03-28T19:26:11.198Z,14.10
2024-03-28T19:28:39.884Z,12.10
2024-03-28T19:31:08.683Z,10.60
2024-03-28T19:33:37.396Z,8.70
2024-03-28T19:36:06.244Z,9.90
2024-03-28T19:38:34.864Z,10.90
2024-03-28T19:41:03.650Z,10.90
2024-03-28T19:43:32.326Z,12.00
2024-03-28T19:46:04.413Z,14.70
2024-03-28T19:48:32.901Z,14.40
2024-03-28T19:51:05.785Z,12.00
2024-03-28T19:53:34.353Z,12.00
2024-03-28T19:56:06.507Z,11.20
2024-03-28T19:58:35.099Z,8.90
2024-03-28T20:01:04.005Z,8.80
2024-03-28T20:03:32.629Z,11.40
2024-03-28T20:06:01.732Z,9.00
2024-03-28T20:08:31.420Z,10.10
2024-03-28T20:11:00.119Z,9.90
2024-03-28T20:13:28.937Z,9.70
2024-03-28T20:15:57.770Z,9.10
2024-03-28T20:18:26.694Z,8.70
2024-03-28T20:20:55.483Z,12.70
2024-03-28T20:23:24.270Z,10.10
2024-03-28T20:25:53.168Z,10.80
2024-03-28T20:28:21.958Z,9.50
2024-03-28T20:30:55.459Z,11.20
2024-03-28T20:33:24.155Z,17.50
2024-03-28T20:35:52.699Z,11.60
2024-03-28T20:38:22.760Z,11.40
2024-03-28T20:40:52.630Z,11.00
2024-03-28T20:43:21.277Z,13.20
2024-03-28T20:45:52.402Z,12.50
2024-03-28T20:48:20.967Z,12.40
2024-03-28T20:50:52.348Z,14.20
2024-03-28T20:53:21.059Z,11.50
2024-03-28T20:55:50.754Z,13.70
2024-03-28T20:58:19.644Z,10.20
2024-03-28T21:00:48.349Z,11.50
2024-03-28T21:03:17.046Z,8.50
2024-03-28T21:05:45.928Z,10.30
2024-03-28T21:08:33.966Z,9.60
2024-03-28T21:11:02.574Z,8.10
2024-03-28T21:13:31.389Z,6.20
2024-03-28T21:16:00.937Z,6.40
2024-03-28T21:18:29.791Z,5.80
2024-03-28T21:20:58.675Z,6.60
2024-03-28T21:23:27.242Z,6.70
2024-03-28T21:25:55.924Z,7.10
2024-03-28T21:28:24.751Z,7.60
2024-03-28T21:30:53.392Z,9.00
2024-03-28T21:33:25.581Z,6.10
2024-03-28T21:35:54.383Z,6.00
2024-03-28T21:38:24.495Z,6.30
2024-03-28T21:41:04.755Z,6.50
2024-03-28T21:43:33.543Z,6.20
2024-03-28T21:46:02.195Z,6.00
2024-03-28T21:48:31.370Z,5.10
2024-03-28T21:51:04.175Z,3.90
2024-03-28T21:53:33.322Z,4.80
2024-03-28T21:56:07.968Z,7.00
2024-03-28T21:58:37.044Z,5.00
2024-03-28T22:01:09.561Z,4.80
2024-03-28T22:03:39.264Z,4.20
2024-03-28T22:06:08.860Z,5.50
2024-03-28T22:08:38.983Z,4.70
2024-03-28T22:11:11.158Z,5.00
2024-03-28T22:13:42.651Z,4.40
2024-03-28T22:16:11.530Z,4.50
2024-03-28T22:18:41.422Z,4.90
2024-03-28T22:21:10.574Z,4.40
2024-03-28T22:23:39.510Z,4.60
2024-03-28T22:26:08.707Z,5.00
2024-03-28T22:28:38.215Z,6.30
2024-03-28T22:31:07.150Z,4.80
2024-03-28T22:33:35.923Z,4.40
2024-03-28T22:36:05.323Z,3.80
2024-03-28T22:38:33.937Z,4.20
2024-03-28T22:41:04.130Z,6.60
2024-03-28T22:43:33.065Z,5.80
2024-03-28T22:46:02.451Z,5.90
2024-03-28T22:48:31.079Z,4.90
2024-03-28T22:50:59.612Z,3.30
2024-03-28T22:53:28.518Z,3.40
2024-03-28T22:56:04.044Z,4.10
2024-03-28T22:58:33.348Z,4.40
2024-03-28T23:01:04.007Z,4.30
2024-03-28T23:03:32.683Z,4.20
2024-03-28T23:06:05.931Z,4.20
2024-03-28T23:08:34.667Z,6.80
2024-03-28T23:11:03.367Z,5.60
2024-03-28T23:13:32.020Z,5.90
2024-03-28T23:16:00.564Z,4.70
2024-03-28T23:18:29.188Z,3.80
2024-03-28T23:20:57.727Z,4.00
2024-03-28T23:23:26.278Z,4.60
2024-03-28T23:25:54.912Z,3.50
2024-03-28T23:28:24.178Z,4.90
2024-03-28T23:30:52.806Z,3.30
2024-03-28T23:33:22.848Z,5.10
2024-03-28T23:35:51.623Z,4.00
2024-03-28T23:38:20.272Z,3.40
2024-03-28T23:40:51.747Z,3.20
2024-03-28T23:43:22.486Z,3.50
2024-03-28T23:45:52.085Z,4.80
2024-03-28T23:48:20.768Z,4.80
2024-03-28T23:50:49.701Z,4.50
2024-03-28T23:53:18.363Z,4.50
2024-03-28T23:55:48.080Z,3.90
2024-03-28T23:58:16.846Z,2.80
